Time;durP1;ratioP1;P1;durP2;ratioP2;P2;SDS_P1;SDS_P2;PMS_P1;PMS_P2;Temp;Humidity;BMP_temperature;BMP_pressure;BME280_temperature;BME280_humidity;BME280_pressure;Samples;Min_cycle;Max_cycle;Signal;HPM_P1;HPM_P2
2022/09/25 00:01:33;;;;;;;9.00;2.20;;;;;;;11.16;100.00;101375.50;5252321;28;20023;-66
2022/09/25 00:04:04;;;;;;;8.65;2.08;;;;;;;11.14;100.00;101376.56;5253084;28;20119;-66
2022/09/25 00:06:35;;;;;;;8.73;2.42;;;;;;;11.10;100.00;101373.28;5257862;28;20061;-67
2022/09/25 00:09:07;;;;;;;7.78;2.22;;;;;;;11.11;100.00;101387.47;5254896;28;20037;-67
2022/09/25 00:11:39;;;;;;;9.07;2.55;;;;;;;11.11;100.00;101383.00;5264619;28;20035;-67
2022/09/25 00:14:10;;;;;;;8.50;2.72;;;;;;;11.04;100.00;101386.19;5269324;28;20479;-67
2022/09/25 00:16:41;;;;;;;8.27;2.03;;;;;;;10.98;100.00;101399.00;5264872;28;20089;-67
2022/09/25 00:22:10;;;;;;;8.07;2.35;;;;;;;10.91;100.00;101391.53;5271312;28;20041;-67
2022/09/25 00:24:41;;;;;;;11.25;2.53;;;;;;;10.89;100.00;101397.00;5261140;28;20024;-67
2022/09/25 00:27:13;;;;;;;7.90;2.40;;;;;;;10.92;100.00;101398.59;5259212;28;20025;-67
2022/09/25 00:29:46;;;;;;;9.70;3.03;;;;;;;10.91;100.00;101395.06;5251358;28;20060;-67
2022/09/25 00:32:17;;;;;;;11.55;2.85;;;;;;;10.91;100.00;101394.19;5265387;28;20660;-67
2022/09/25 00:34:48;;;;;;;6.50;2.00;;;;;;;10.89;100.00;101390.78;5263210;28;20039;-67
2022/09/25 00:37:20;;;;;;;8.77;2.65;;;;;;;10.86;100.00;101397.19;5254601;28;20462;-67
2022/09/25 00:39:51;;;;;;;10.70;3.65;;;;;;;10.90;100.00;101392.50;5265365;28;20391;-67
2022/09/25 00:42:22;;;;;;;9.85;3.42;;;;;;;10.83;100.00;101389.38;5256521;28;20180;-66
2022/09/25 00:45:04;;;;;;;8.77;2.60;;;;;;;10.78;100.00;101387.03;5266713;28;20020;-66
2022/09/25 00:47:58;;;;;;;8.70;2.83;;;;;;;10.85;100.00;101381.28;5265387;28;20527;-67
2022/09/25 00:50:37;;;;;;;8.23;3.25;;;;;;;10.89;100.00;101374.75;5255625;28;20630;-67
2022/09/25 00:53:17;;;;;;;11.18;2.60;;;;;;;10.85;100.00;101387.47;5256221;28;20584;-67
2022/09/25 00:55:49;;;;;;;9.65;2.80;;;;;;;10.81;100.00;101387.78;5266650;28;20040;-67
2022/09/25 00:58:23;;;;;;;6.93;2.30;;;;;;;10.81;100.00;101388.63;5272115;28;20024;-67
2022/09/25 01:00:54;;;;;;;8.65;2.45;;;;;;;10.77;100.00;101390.66;5239481;28;20403;-67
2022/09/25 01:03:26;;;;;;;7.72;2.15;;;;;;;10.75;100.00;101392.56;5263134;28;20072;-68
2022/09/25 01:05:59;;;;;;;9.90;2.72;;;;;;;10.74;100.00;101404.22;5257665;28;20036;-67
2022/09/25 01:08:33;;;;;;;6.32;2.25;;;;;;;10.75;100.00;101399.75;5252306;28;20114;-67
2022/09/25 01:11:04;;;;;;;8.85;2.40;;;;;;;10.68;100.00;101396.66;5258151;28;20028;-67
2022/09/25 01:13:37;;;;;;;11.48;3.05;;;;;;;10.67;100.00;101399.41;5274375;28;20086;-67
2022/09/25 01:16:23;;;;;;;9.65;2.90;;;;;;;10.67;100.00;101397.59;5275612;28;20454;-67
2022/09/25 01:19:34;;;;;;;7.20;2.50;;;;;;;10.68;100.00;101390.44;5280422;28;20024;-67
2022/09/25 01:22:25;;;;;;;11.23;2.78;;;;;;;10.60;100.00;101388.28;5271894;28;20052;-67
2022/09/25 01:25:13;;;;;;;12.60;3.40;;;;;;;10.58;100.00;101395.53;5288491;28;20028;-67
2022/09/25 01:28:06;;;;;;;8.25;2.80;;;;;;;10.56;100.00;101394.78;5270891;28;20492;-68
2022/09/25 01:30:43;;;;;;;14.98;3.97;;;;;;;10.63;100.00;101397.91;5276694;28;20041;-67
2022/09/25 01:33:26;;;;;;;8.98;2.63;;;;;;;10.46;100.00;101401.72;5271468;28;20109;-69
2022/09/25 01:36:13;;;;;;;9.40;2.65;;;;;;;10.49;100.00;101397.03;5273205;28;20399;-67
2022/09/25 01:39:07;;;;;;;8.13;2.97;;;;;;;10.40;100.00;101403.00;5270718;28;20026;-67
2022/09/25 01:41:46;;;;;;;8.15;2.30;;;;;;;10.31;100.00;101412.44;5257080;28;20501;-67
2022/09/25 01:44:34;;;;;;;9.90;2.60;;;;;;;10.35;100.00;101408.59;5282439;28;20564;-67
2022/09/25 01:47:10;;;;;;;10.68;2.60;;;;;;;10.27;100.00;101413.56;5268897;28;20029;-67
2022/09/25 01:49:47;;;;;;;8.05;2.63;;;;;;;10.21;100.00;101412.16;5282054;28;20390;-67
2022/09/25 01:52:24;;;;;;;9.90;3.00;;;;;;;10.18;100.00;101408.84;5276768;28;21099;-67
2022/09/25 01:55:04;;;;;;;7.72;2.58;;;;;;;10.18;100.00;101416.84;5282017;28;20021;-67
2022/09/25 01:57:40;;;;;;;5.43;2.60;;;;;;;10.23;100.00;101417.41;5266806;28;20037;-67
2022/09/25 02:00:16;;;;;;;6.40;2.38;;;;;;;10.12;100.00;101411.91;5269048;28;20039;-67
2022/09/25 02:02:54;;;;;;;7.75;2.00;;;;;;;10.12;100.00;101415.44;5273518;28;20365;-67
2022/09/25 02:05:30;;;;;;;7.95;2.38;;;;;;;10.20;100.00;101414.94;5286738;28;20466;-67
2022/09/25 02:08:06;;;;;;;6.43;2.50;;;;;;;10.05;100.00;101408.81;5265394;28;20113;-67
2022/09/25 02:10:50;;;;;;;8.85;2.40;;;;;;;10.08;100.00;101405.09;5259219;28;20044;-67
2022/09/25 02:13:25;;;;;;;10.63;2.45;;;;;;;9.99;100.00;101406.53;5265024;28;20028;-67
2022/09/25 02:16:01;;;;;;;10.75;3.42;;;;;;;9.96;100.00;101407.59;5274707;28;20024;-67
2022/09/25 02:21:48;;;;;;;7.05;2.60;;;;;;;10.05;100.00;101406.16;5278297;28;20397;-67
2022/09/25 02:24:39;;;;;;;9.30;2.30;;;;;;;9.91;100.00;101409.69;5266351;28;20024;-67
2022/09/25 02:27:10;;;;;;;6.75;2.30;;;;;;;9.83;100.00;101396.00;5277896;28;20101;-67
2022/09/25 02:29:42;;;;;;;9.48;2.78;;;;;;;9.81;100.00;101405.91;5283222;28;20111;-67
2022/09/25 02:32:21;;;;;;;8.07;2.30;;;;;;;9.72;100.00;101411.81;5265954;28;20037;-67
2022/09/25 02:34:52;;;;;;;7.57;2.50;;;;;;;9.71;100.00;101404.81;5271259;28;20036;-67
2022/09/25 02:37:25;;;;;;;8.88;2.55;;;;;;;9.62;100.00;101406.22;5257704;28;20028;-67
2022/09/25 02:40:00;;;;;;;7.35;2.55;;;;;;;9.55;100.00;101413.78;5277686;28;20028;-67
2022/09/25 02:42:47;;;;;;;8.52;2.50;;;;;;;9.58;100.00;101415.38;5277076;28;20033;-67
2022/09/25 02:45:42;;;;;;;7.28;2.50;;;;;;;9.52;100.00;101415.78;5280118;28;20036;-67
2022/09/25 02:48:27;;;;;;;7.10;2.28;;;;;;;9.43;100.00;101414.53;5257225;28;20196;-68
2022/09/25 02:51:28;;;;;;;7.30;2.70;;;;;;;9.51;100.00;101414.03;5262356;28;20486;-66
2022/09/25 02:54:13;;;;;;;8.70;2.53;;;;;;;9.35;100.00;101408.81;5270793;28;20107;-67
2022/09/25 02:56:48;;;;;;;9.95;3.22;;;;;;;9.39;100.00;101402.34;5258928;28;20063;-67
2022/09/25 02:59:26;;;;;;;13.07;2.90;;;;;;;9.31;100.00;101397.50;5252715;28;20028;-67
2022/09/25 03:01:58;;;;;;;9.02;3.50;;;;;;;9.35;100.00;101392.84;5257122;28;20027;-66
2022/09/25 03:04:34;;;;;;;6.13;2.63;;;;;;;9.22;100.00;101392.75;5256377;28;20028;-67
2022/09/25 03:07:06;;;;;;;7.93;3.00;;;;;;;9.26;100.00;101396.94;5257896;28;21342;-67
2022/09/25 03:09:41;;;;;;;10.68;3.88;;;;;;;9.29;100.00;101393.25;5261260;28;20090;-67
2022/09/25 03:12:13;;;;;;;5.90;2.40;;;;;;;9.19;100.00;101396.47;5253725;28;20059;-67
2022/09/25 03:14:45;;;;;;;7.60;3.03;;;;;;;9.17;100.00;101395.72;5275522;28;20073;-67
2022/09/25 03:17:16;;;;;;;7.10;2.75;;;;;;;9.13;100.00;101396.84;5250893;28;20151;-67
2022/09/25 03:19:48;;;;;;;8.18;2.60;;;;;;;9.06;100.00;101394.66;5258562;28;20029;-67
2022/09/25 03:22:19;;;;;;;21.17;3.85;;;;;;;8.99;100.00;101399.50;5268185;28;20027;-67
2022/09/25 03:24:50;;;;;;;10.02;3.63;;;;;;;9.02;100.00;101404.63;5266258;28;20035;-67
2022/09/25 03:27:21;;;;;;;7.45;2.80;;;;;;;8.93;100.00;101408.69;5274830;28;20036;-67
2022/09/25 03:29:54;;;;;;;8.82;3.38;;;;;;;8.89;100.00;101401.00;5253839;28;20064;-67
2022/09/25 03:32:25;;;;;;;11.32;4.25;;;;;;;8.91;100.00;101404.44;5258940;28;20040;-68
2022/09/25 03:34:56;;;;;;;7.97;4.68;;;;;;;8.86;100.00;101402.06;5261611;28;20023;-67
2022/09/25 03:37:28;;;;;;;10.85;4.72;;;;;;;8.73;100.00;101409.91;5256798;28;20052;-67
2022/09/25 03:40:00;;;;;;;11.77;5.10;;;;;;;8.74;100.00;101408.09;5262522;28;20024;-67
2022/09/25 03:42:31;;;;;;;11.88;5.07;;;;;;;8.66;100.00;101405.91;5267018;28;20511;-67
2022/09/25 03:45:05;;;;;;;11.45;6.13;;;;;;;8.62;100.00;101391.06;5260680;28;20089;-67
2022/09/25 03:47:36;;;;;;;14.48;6.53;;;;;;;8.64;100.00;101398.00;5258620;28;20053;-67
2022/09/25 03:50:08;;;;;;;12.38;6.28;;;;;;;8.62;100.00;101396.38;5270727;28;20398;-67
2022/09/25 03:52:39;;;;;;;11.43;6.63;;;;;;;8.68;100.00;101398.69;5268222;28;20478;-67
2022/09/25 03:55:11;;;;;;;13.30;7.30;;;;;;;8.72;100.00;101399.34;5269103;28;20024;-67
2022/09/25 03:57:42;;;;;;;13.30;6.70;;;;;;;8.56;100.00;101396.75;5261577;28;20691;-67
2022/09/25 04:00:15;;;;;;;10.93;6.82;;;;;;;8.60;100.00;101399.13;5270946;28;20024;-67
2022/09/25 04:02:47;;;;;;;16.40;7.88;;;;;;;8.58;100.00;101405.50;5265328;28;20132;-67
2022/09/25 04:05:18;;;;;;;15.00;7.38;;;;;;;8.56;100.00;101399.41;5252239;28;20074;-67
2022/09/25 04:07:50;;;;;;;13.27;7.07;;;;;;;8.49;100.00;101398.06;5254106;28;20041;-67
2022/09/25 04:10:21;;;;;;;14.88;7.32;;;;;;;8.50;100.00;101402.44;5274325;28;20035;-67
2022/09/25 04:12:54;;;;;;;13.55;6.93;;;;;;;8.56;100.00;101405.59;5264663;28;20032;-67
2022/09/25 04:15:25;;;;;;;15.95;7.90;;;;;;;8.58;100.00;101406.34;5251639;28;20032;-67
2022/09/25 04:17:57;;;;;;;13.95;7.88;;;;;;;8.54;100.00;101396.84;5266907;28;20109;-67
2022/09/25 04:20:28;;;;;;;14.20;7.82;;;;;;;8.59;100.00;101396.56;5273897;28;20032;-67
2022/09/25 04:23:00;;;;;;;13.65;7.90;;;;;;;8.52;100.00;101396.09;5267312;28;20069;-67
2022/09/25 04:25:32;;;;;;;16.50;7.70;;;;;;;8.54;100.00;101396.84;5267294;28;20035;-67
2022/09/25 04:28:04;;;;;;;16.02;8.75;;;;;;;8.42;100.00;101390.44;5261127;28;20090;-67
2022/09/25 04:30:35;;;;;;;13.18;7.53;;;;;;;8.37;100.00;101381.84;5266022;28;20136;-67
2022/09/25 04:35:58;;;;;;;12.80;8.10;;;;;;;8.30;100.00;101391.13;5274167;28;20048;-66
2022/09/25 04:38:32;;;;;;;16.35;8.35;;;;;;;8.28;100.00;101389.50;5271620;28;20021;-67
2022/09/25 04:41:04;;;;;;;;;;;;;;;8.37;100.00;101392.47;5265517;28;20454;-67
2022/09/25 04:43:35;;;;;;;13.88;7.60;;;;;;;8.27;100.00;101399.28;5265178;28;20257;-67
2022/09/25 04:46:09;;;;;;;15.48;8.50;;;;;;;8.21;100.00;101394.34;5263044;28;20374;-67
2022/09/25 04:48:43;;;;;;;13.90;9.23;;;;;;;8.17;100.00;101388.34;5264442;28;20542;-67
2022/09/25 04:51:15;;;;;;;;;;;;;;;8.25;100.00;101382.56;5265149;28;20060;-67
2022/09/25 04:53:46;;;;;;;14.32;9.15;;;;;;;8.11;100.00;101390.47;5275761;28;20425;-67
2022/09/25 04:56:17;;;;;;;14.90;9.85;;;;;;;8.12;100.00;101392.19;5272135;28;20048;-67
2022/09/25 04:58:49;;;;;;;14.65;9.30;;;;;;;8.05;100.00;101387.25;5265475;28;20020;-67
2022/09/25 05:01:20;;;;;;;15.88;9.23;;;;;;;8.05;100.00;101389.91;5265332;28;20040;-67
2022/09/25 05:03:54;;;;;;;15.57;9.90;;;;;;;8.00;100.00;101381.31;5266511;28;20024;-67
2022/09/25 05:06:25;;;;;;;15.73;10.10;;;;;;;7.99;100.00;101386.72;5270212;28;20141;-67
2022/09/25 05:08:57;;;;;;;15.68;9.80;;;;;;;7.90;100.00;101384.59;5265960;28;20031;-67
2022/09/25 05:11:28;;;;;;;16.08;9.35;;;;;;;7.90;100.00;101387.25;5268101;28;20036;-67
2022/09/25 05:14:00;;;;;;;14.95;10.35;;;;;;;7.93;100.00;101387.94;5266240;28;20117;-67
2022/09/25 05:16:31;;;;;;;16.27;10.13;;;;;;;7.85;100.00;101384.84;5264926;28;20051;-67
2022/09/25 05:19:02;;;;;;;13.90;9.43;;;;;;;7.92;100.00;101383.56;5251355;28;20051;-67
2022/09/25 05:21:34;;;;;;;15.20;10.20;;;;;;;7.85;100.00;101374.22;5268417;28;20515;-67
2022/09/25 05:24:07;;;;;;;18.42;10.40;;;;;;;7.87;100.00;101374.16;5260694;28;20726;-67
2022/09/25 05:26:39;;;;;;;20.83;10.77;;;;;;;7.88;100.00;101387.34;5264106;28;20032;-67
2022/09/25 05:29:11;;;;;;;19.30;11.43;;;;;;;7.84;100.00;101369.84;5262973;28;20032;-68
2022/09/25 05:31:45;;;;;;;16.63;10.63;;;;;;;7.88;100.00;101371.41;5278021;28;20406;-67
2022/09/25 05:34:16;;;;;;;15.90;10.48;;;;;;;7.89;100.00;101374.91;5263426;28;20024;-67
2022/09/25 05:36:48;;;;;;;14.27;10.20;;;;;;;7.79;100.00;101377.25;5268329;28;20039;-67
2022/09/25 05:39:19;;;;;;;16.80;10.70;;;;;;;7.81;100.00;101375.34;5259746;28;20024;-67
2022/09/25 05:41:50;;;;;;;16.02;9.90;;;;;;;7.83;100.00;101379.63;5263263;28;20028;-67
2022/09/25 05:44:25;;;;;;;16.90;10.15;;;;;;;7.82;100.00;101377.94;5264481;28;20034;-67
2022/09/25 05:46:56;;;;;;;;;;;;;;;7.89;100.00;101386.38;5262907;28;20032;-67
2022/09/25 05:49:27;;;;;;;17.83;11.70;;;;;;;7.85;100.00;101387.50;5262858;28;19967;-67
2022/09/25 05:51:58;;;;;;;20.73;13.30;;;;;;;7.83;100.00;101386.75;5275790;28;20135;-68
2022/09/25 05:54:30;;;;;;;18.58;12.75;;;;;;;7.76;100.00;101386.22;5279418;28;20463;-67
2022/09/25 05:57:01;;;;;;;19.08;12.23;;;;;;;7.79;100.00;101391.38;5274279;28;20497;-67
2022/09/25 05:59:33;;;;;;;16.95;10.98;;;;;;;7.86;100.00;101394.53;5258666;28;20029;-70
2022/09/25 06:02:05;;;;;;;18.20;10.98;;;;;;;7.72;100.00;101400.63;5261722;28;20103;-67
2022/09/25 06:04:36;;;;;;;17.35;10.65;;;;;;;7.76;100.00;101401.31;5262164;28;20615;-67
2022/09/25 06:07:10;;;;;;;15.70;10.55;;;;;;;7.74;100.00;101396.06;5268832;28;20428;-67
2022/09/25 06:09:42;;;;;;;;;;;;;;;7.85;100.00;101400.78;5267776;28;20075;-67
2022/09/25 06:12:13;;;;;;;17.85;10.57;;;;;;;7.81;100.00;101400.09;5269803;28;19920;-67
2022/09/25 06:14:44;;;;;;;17.48;11.30;;;;;;;7.84;100.00;101399.06;5258114;28;20028;-67
2022/09/25 06:17:15;;;;;;;15.93;10.18;;;;;;;7.88;100.00;101402.41;5267232;28;20070;-67
2022/09/25 06:19:47;;;;;;;16.45;10.13;;;;;;;7.76;100.00;101396.84;5279657;28;20024;-67
2022/09/25 06:22:19;;;;;;;17.48;10.48;;;;;;;7.75;100.00;101397.81;5265060;28;20485;-67
2022/09/25 06:24:50;;;;;;;15.98;10.75;;;;;;;7.78;100.00;101392.28;5266628;28;20021;-67
2022/09/25 06:27:22;;;;;;;17.48;10.90;;;;;;;7.79;100.00;101398.50;5262659;28;20029;-67
2022/09/25 06:29:53;;;;;;;18.42;11.30;;;;;;;7.84;100.00;101396.41;5258258;28;20523;-67
2022/09/25 06:32:24;;;;;;;19.23;10.68;;;;;;;7.91;100.00;101399.59;5259289;28;20482;-67
2022/09/25 06:34:55;;;;;;;18.17;11.57;;;;;;;7.89;100.00;101401.47;5258108;28;20475;-67
2022/09/25 06:37:27;;;;;;;18.55;11.88;;;;;;;7.87;100.00;101396.25;5260212;28;20057;-67
2022/09/25 06:39:58;;;;;;;18.80;12.13;;;;;;;7.87;100.00;101396.25;5260255;28;20645;-67
2022/09/25 06:42:29;;;;;;;24.42;12.63;;;;;;;7.87;100.00;101403.38;5258804;28;20032;-67
2022/09/25 06:45:00;;;;;;;20.58;12.90;;;;;;;7.84;100.00;101397.28;5258941;28;20159;-67
2022/09/25 06:47:32;;;;;;;17.58;12.50;;;;;;;7.88;100.00;101392.66;5258175;28;20123;-67
2022/09/25 06:50:03;;;;;;;22.00;13.43;;;;;;;7.95;100.00;101401.13;5259710;28;20048;-67
2022/09/25 06:52:42;;;;;;;20.63;12.88;;;;;;;8.00;100.00;101410.56;5263089;28;20036;-67
2022/09/25 06:55:13;;;;;;;20.77;14.38;;;;;;;8.04;100.00;101412.09;5265498;28;20079;-67
2022/09/25 06:57:45;;;;;;;23.08;13.85;;;;;;;8.05;100.00;101403.19;5259421;28;20503;-67
2022/09/25 07:00:16;;;;;;;21.40;13.40;;;;;;;8.12;100.00;101406.34;5256005;28;20036;-67
2022/09/25 07:05:37;;;;;;;24.33;14.25;;;;;;;8.17;100.00;101414.91;5263050;28;20033;-67
2022/09/25 07:08:11;;;;;;;19.45;14.50;;;;;;;8.27;100.00;101412.59;5264117;28;20041;-67
2022/09/25 07:10:51;;;;;;;21.35;13.45;;;;;;;8.28;100.00;101410.78;5262854;28;20032;-67
2022/09/25 07:13:28;;;;;;;25.65;15.00;;;;;;;8.38;100.00;101407.50;5266930;28;20028;-67
2022/09/25 07:16:02;;;;;;;25.00;14.48;;;;;;;8.35;100.00;101415.66;5261155;28;20021;-67
2022/09/25 07:18:33;;;;;;;22.15;13.30;;;;;;;8.44;100.00;101411.63;5286066;28;20618;-67
2022/09/25 07:21:11;;;;;;;24.08;14.40;;;;;;;8.54;100.00;101417.28;5263531;28;20025;-67
2022/09/25 07:23:45;;;;;;;22.15;13.77;;;;;;;8.60;100.00;101417.75;5264386;28;20411;-67
2022/09/25 07:26:27;;;;;;;22.92;13.77;;;;;;;8.69;100.00;101416.38;5270118;28;20115;-67
2022/09/25 07:29:05;;;;;;;21.92;13.25;;;;;;;8.73;100.00;101425.88;5261842;28;20034;-67
2022/09/25 07:31:36;;;;;;;24.63;13.70;;;;;;;8.79;100.00;101422.00;5272557;28;20028;-67
2022/09/25 07:34:08;;;;;;;21.13;13.48;;;;;;;8.91;100.00;101425.72;5271197;28;20419;-67
2022/09/25 07:36:41;;;;;;;21.52;13.85;;;;;;;8.97;100.00;101428.84;5267015;28;20032;-67
2022/09/25 07:39:13;;;;;;;18.98;13.20;;;;;;;9.03;100.00;101432.94;5265311;28;20079;-67
2022/09/25 07:41:45;;;;;;;19.52;13.35;;;;;;;9.11;100.00;101430.69;5267136;28;20020;-67
2022/09/25 07:44:16;;;;;;;17.35;12.18;;;;;;;9.17;100.00;101425.00;5256658;28;20087;-67
2022/09/25 07:46:47;;;;;;;21.55;13.00;;;;;;;9.23;100.00;101429.94;5259662;28;20434;-67
2022/09/25 07:49:18;;;;;;;18.42;12.85;;;;;;;9.33;100.00;101422.22;5268069;28;20366;-67
2022/09/25 07:51:50;;;;;;;18.13;12.02;;;;;;;9.40;100.00;101428.91;5267230;28;20540;-67
2022/09/25 07:54:23;;;;;;;17.48;10.98;;;;;;;9.44;100.00;101424.25;5263734;28;20028;-67
2022/09/25 07:56:54;;;;;;;20.48;11.23;;;;;;;9.42;100.00;101423.47;5263795;28;20075;-67
2022/09/25 07:59:26;;;;;;;14.93;9.90;;;;;;;9.53;100.00;101417.47;5269176;28;20039;-67
2022/09/25 08:01:57;;;;;;;12.80;9.48;;;;;;;9.60;100.00;101419.63;5259422;28;20025;-67
2022/09/25 08:04:29;;;;;;;14.93;9.73;;;;;;;9.72;100.00;101412.69;5265800;28;20040;-67
2022/09/25 08:07:00;;;;;;;15.20;9.57;;;;;;;9.81;100.00;101416.56;5267664;28;20032;-64
2022/09/25 08:09:31;;;;;;;13.70;8.40;;;;;;;9.81;100.00;101420.09;5269948;28;20032;-64
2022/09/25 08:12:02;;;;;;;12.85;8.52;;;;;;;9.86;100.00;101411.81;5267012;28;20028;-64
2022/09/25 08:14:34;;;;;;;13.80;7.55;;;;;;;10.06;100.00;101415.00;5272452;28;20020;-64
2022/09/25 08:17:05;;;;;;;11.18;5.45;;;;;;;10.08;100.00;101410.41;5271088;28;20051;-64
2022/09/25 08:19:36;;;;;;;11.18;6.45;;;;;;;10.13;100.00;101417.16;5271518;28;20457;-64
2022/09/25 08:22:08;;;;;;;11.30;6.10;;;;;;;10.33;100.00;101407.00;5275404;28;20032;-64
2022/09/25 08:24:39;;;;;;;10.77;5.93;;;;;;;10.40;100.00;101408.31;5277403;28;20039;-64
2022/09/25 08:27:11;;;;;;;11.98;5.18;;;;;;;10.54;100.00;101410.06;5280429;28;20029;-64
2022/09/25 08:29:42;;;;;;;8.30;4.72;;;;;;;10.56;100.00;101405.47;5279125;28;20108;-64
2022/09/25 08:32:14;;;;;;;12.05;4.97;;;;;;;10.75;100.00;101402.41;5277287;28;20025;-64
2022/09/25 08:34:45;;;;;;;9.18;4.40;;;;;;;10.76;100.00;101404.13;5263489;28;20036;-64
2022/09/25 08:37:18;;;;;;;8.32;3.92;;;;;;;10.90;100.00;101409.38;5279465;28;20032;-64
2022/09/25 08:39:49;;;;;;;9.38;3.50;;;;;;;11.13;100.00;101415.78;5272723;28;20037;-64
2022/09/25 08:42:32;;;;;;;7.53;3.45;;;;;;;11.13;100.00;101406.91;5268252;28;20031;-64
2022/09/25 08:50:52;;;;;;;7.93;2.45;;;;;;;11.49;100.00;101419.50;5264543;28;20040;-64
2022/09/25 08:53:24;;;;;;;6.05;2.25;;;;;;;11.53;100.00;101425.47;5262656;28;20065;-64
2022/09/25 08:56:14;;;;;;;9.40;2.50;;;;;;;11.60;100.00;101420.53;5270117;28;20036;-64
2022/09/25 08:59:25;;;;;;;7.78;2.42;;;;;;;11.77;100.00;101420.19;5273426;28;20115;-64
2022/09/25 09:02:07;;;;;;;6.13;2.10;;;;;;;11.88;100.00;101417.59;5250542;28;20491;-64
2022/09/25 09:04:48;;;;;;;8.13;2.30;;;;;;;12.01;100.00;101414.06;5278507;28;20043;-64
2022/09/25 09:07:36;;;;;;;6.72;2.05;;;;;;;12.12;100.00;101411.44;5275410;28;20519;-64
2022/09/25 09:10:19;;;;;;;6.90;1.95;;;;;;;12.14;100.00;101415.72;5275474;28;20016;-64
2022/09/25 09:12:59;;;;;;;8.15;2.05;;;;;;;12.29;100.00;101410.16;5256755;28;20132;-64
2022/09/25 09:15:39;;;;;;;8.10;2.15;;;;;;;12.38;100.00;101409.50;5270026;28;20032;-64
2022/09/25 09:18:25;;;;;;;7.05;1.75;;;;;;;12.48;100.00;101404.28;5259189;28;20029;-65
2022/09/25 09:21:05;;;;;;;7.43;1.38;;;;;;;12.61;100.00;101406.91;5259409;28;20553;-64
2022/09/25 09:24:07;;;;;;;9.32;2.47;;;;;;;12.72;100.00;101404.25;5276964;28;20135;-64
2022/09/25 09:27:09;;;;;;;4.93;1.10;;;;;;;12.80;100.00;101409.88;5277882;28;20105;-64
2022/09/25 09:29:56;;;;;;;6.32;1.30;;;;;;;12.88;100.00;101409.28;5281190;28;20020;-64
2022/09/25 09:32:55;;;;;;;6.28;1.40;;;;;;;12.92;100.00;101411.63;5258685;28;20124;-64
2022/09/25 09:35:37;;;;;;;4.38;1.02;;;;;;;13.21;100.00;101408.50;5273504;28;20055;-65
2022/09/25 09:39:03;;;;;;;9.30;3.35;;;;;;;13.23;100.00;101409.22;5280265;28;20061;-64
2022/09/25 09:42:09;;;;;;;9.38;4.10;;;;;;;13.26;100.00;101408.97;5199702;28;20030;-64
2022/09/25 09:45:07;;;;;;;7.38;1.95;;;;;;;13.26;100.00;101408.13;5273942;28;20428;-64
2022/09/25 09:48:07;;;;;;;6.28;1.30;;;;;;;13.30;100.00;101394.38;5266516;28;20413;-64
2022/09/25 09:50:49;;;;;;;6.55;1.05;;;;;;;13.37;100.00;101402.78;5264884;28;20082;-64
2022/09/25 09:53:23;;;;;;;4.05;1.00;;;;;;;13.37;100.00;101397.44;5280466;28;20023;-64
2022/09/25 09:56:01;;;;;;;5.22;1.80;;;;;;;13.47;100.00;101395.72;5287994;28;20466;-64
2022/09/25 09:58:57;;;;;;;5.95;1.10;;;;;;;13.53;100.00;101395.22;5283421;28;20114;-64
2022/09/25 10:01:33;;;;;;;5.38;0.90;;;;;;;13.59;100.00;101393.03;5286362;28;20039;-64
2022/09/25 10:04:09;;;;;;;4.68;1.23;;;;;;;13.51;100.00;101394.50;5268185;28;20133;-64
2022/09/25 10:06:52;;;;;;;4.75;0.85;;;;;;;13.60;100.00;101392.06;5289646;28;20088;-64
2022/09/25 10:09:25;;;;;;;3.30;0.85;;;;;;;13.73;100.00;101385.59;5280125;28;20036;-64
2022/09/25 10:12:09;;;;;;;5.90;0.90;;;;;;;13.65;100.00;101384.47;5282288;28;20408;-65
2022/09/25 10:14:44;;;;;;;4.63;0.85;;;;;;;13.86;100.00;101385.41;5274379;28;20083;-65
2022/09/25 10:17:17;;;;;;;8.52;1.35;;;;;;;13.81;100.00;101376.06;5260078;28;20029;-64
2022/09/25 10:19:56;;;;;;;5.32;1.00;;;;;;;13.79;100.00;101376.19;5273402;28;20029;-64
2022/09/25 10:22:39;;;;;;;4.18;0.70;;;;;;;13.98;100.00;101377.34;5279287;28;20024;-64
2022/09/25 10:25:11;;;;;;;4.03;0.80;;;;;;;14.00;100.00;101373.56;5269862;28;20028;-64
2022/09/25 10:27:48;;;;;;;3.80;0.98;;;;;;;14.06;100.00;101380.25;5283853;28;20398;-64
2022/09/25 10:30:21;;;;;;;3.20;1.00;;;;;;;14.16;100.00;101375.81;5270124;28;20386;-65
2022/09/25 10:32:56;;;;;;;10.35;1.85;;;;;;;14.07;99.85;101381.94;5260831;28;20479;-64
2022/09/25 10:35:37;;;;;;;5.82;1.10;;;;;;;14.04;98.79;101379.53;5275066;28;20523;-64
2022/09/25 10:38:38;;;;;;;5.03;0.75;;;;;;;14.06;100.00;101369.53;5273283;28;20521;-64
2022/09/25 10:41:16;;;;;;;3.33;0.80;;;;;;;14.10;96.83;101377.19;5279745;28;20034;-64
2022/09/25 10:44:00;;;;;;;4.25;0.82;;;;;;;14.18;97.17;101381.91;5281414;28;20036;-64
2022/09/25 10:52:18;;;;;;;5.65;1.23;;;;;;;14.17;98.25;101382.91;5270897;28;20033;-65
2022/09/25 10:54:51;;;;;;;3.42;0.80;;;;;;;14.12;94.98;101374.38;5272793;28;20032;-65
2022/09/25 10:57:37;;;;;;;3.83;0.65;;;;;;;14.12;93.01;101369.00;5280578;28;20039;-64
2022/09/25 11:00:25;;;;;;;6.65;1.70;;;;;;;14.20;95.37;101366.53;5283122;28;20024;-64
2022/09/25 11:03:01;;;;;;;5.28;1.25;;;;;;;14.27;95.32;101373.09;5274041;28;20043;-65
2022/09/25 11:05:35;;;;;;;4.32;0.85;;;;;;;14.36;92.78;101366.09;5282723;28;20848;-64
2022/09/25 11:08:08;;;;;;;5.60;1.00;;;;;;;14.50;90.87;101375.69;5279319;28;20420;-64
2022/09/25 11:11:00;;;;;;;4.97;0.80;;;;;;;14.62;91.00;101365.75;5273201;28;20035;-64
2022/09/25 11:13:44;;;;;;;5.43;0.70;;;;;;;14.60;90.62;101365.88;5265927;28;20033;-64
2022/09/25 11:16:16;;;;;;;;;;;;;;;14.74;94.82;101370.06;5273764;28;20465;-64
2022/09/25 11:18:50;;;;;;;2.65;0.63;;;;;;;14.77;91.94;101363.59;5276551;28;19917;-64
2022/09/25 11:21:24;;;;;;;5.68;0.93;;;;;;;14.77;90.77;101368.97;5285382;28;20031;-64
2022/09/25 11:23:56;;;;;;;4.68;0.82;;;;;;;14.76;89.19;101372.63;5280940;28;20033;-64
2022/09/25 11:26:39;;;;;;;2.65;0.70;;;;;;;14.69;88.24;101372.31;5286250;28;20028;-64
2022/09/25 11:29:29;;;;;;;4.25;0.60;;;;;;;14.79;88.24;101365.16;5277148;28;20517;-64
2022/09/25 11:32:42;;;;;;;2.53;0.65;;;;;;;14.87;87.47;101365.34;5275362;28;20055;-64
2022/09/25 11:35:41;;;;;;;3.60;0.63;;;;;;;14.96;86.12;101358.34;5282530;28;20533;-64
2022/09/25 11:41:47;;;;;;;7.53;1.00;;;;;;;15.20;86.29;101358.00;5277625;28;20040;-64
2022/09/25 11:44:30;;;;;;;4.68;1.20;;;;;;;15.21;84.19;101356.19;5280746;28;20028;-64
2022/09/25 11:47:24;;;;;;;3.72;0.80;;;;;;;15.13;86.29;101347.94;5271511;28;20773;-64
2022/09/25 11:49:58;;;;;;;3.58;0.82;;;;;;;15.16;83.16;101351.19;5273199;28;20024;-64
2022/09/25 11:52:39;;;;;;;4.13;0.98;;;;;;;15.23;85.62;101340.78;5283390;28;20394;-64
2022/09/25 11:55:20;;;;;;;2.92;0.70;;;;;;;15.22;79.08;101341.75;5256398;28;20029;-64
2022/09/25 11:58:19;;;;;;;3.88;0.73;;;;;;;15.25;81.53;101336.97;5271085;28;20036;-64
2022/09/25 12:01:01;;;;;;;6.43;0.95;;;;;;;15.29;84.06;101338.38;5263553;28;20106;-64
2022/09/25 12:03:57;;;;;;;3.95;0.65;;;;;;;15.37;86.19;101335.00;5265907;28;20084;-66
2022/09/25 12:06:53;;;;;;;3.33;0.60;;;;;;;15.33;82.02;101325.53;5272311;28;20123;-64
2022/09/25 12:10:03;;;;;;;3.67;0.80;;;;;;;15.41;85.47;101341.81;5279829;28;20028;-65
2022/09/25 12:12:40;;;;;;;3.28;0.80;;;;;;;15.43;86.44;101333.63;5275753;28;20036;-65
2022/09/25 12:15:20;;;;;;;3.97;0.75;;;;;;;15.40;84.07;101325.84;5282709;28;20033;-64
2022/09/25 12:18:19;;;;;;;4.75;0.77;;;;;;;15.28;86.82;101322.38;5273580;28;20033;-64
2022/09/25 12:21:02;;;;;;;3.13;0.55;;;;;;;15.22;81.91;101325.63;5288042;28;20879;-64
2022/09/25 12:23:43;;;;;;;4.32;1.10;;;;;;;15.20;85.25;101316.84;5277596;28;20646;-63
2022/09/25 12:26:47;;;;;;;3.45;0.63;;;;;;;15.32;84.32;101313.06;5274437;28;20416;-64
2022/09/25 12:30:05;;;;;;;3.03;0.60;;;;;;;15.37;82.12;101313.50;5268823;28;20035;-64